Currently N/A°F in San Diego (City Heights), California, USA
N/A°F Alert
N/A°F / N/A°F
N/A
N/A
Thursday, August 16, 2018 6:36 AM PDT

San Diego (City Heights), California Weather Summary
Last 36 Hours

Temperature Winds Hourly Humidity Dewpoint
Time Report Norm Report Norm Max Gusts Precip. Rpt. Norm Rpt. Norm Pressure
1Thu 03:41 PM  80.5°F  80°F  5 mph SE  4 mph  11 mph  0.00"  62%  55%  66°F  62°F  N/A
Thu 03:00 PM  79.7°F  80°F  4 mph SW  4 mph  12 mph  0.00"  65%  55%  67°F  62°F  N/A
2Thu 02:29 PM  80.7°F  80°F  6 mph S  4 mph  10 mph  ----  62%  55%  66°F  62°F  N/A
Thu 02:00 PM  80.4°F  80°F  7 mph S  4 mph  11 mph  0.00"  65%  56%  67°F  62°F  N/A
Thu 01:00 PM  76.9°F  80°F  5 mph S  4 mph  11 mph  0.00"  73%  57%  67°F  63°F  N/A
Thu 12:00 PM  75.9°F  79°F  4 mph SW  4 mph  12 mph  0.00"  76%  59%  68°F  63°F  N/A
Thu 11:00 AM  73.2°F  78°F  7 mph S  3 mph  9 mph  0.00"  82%  62%  67°F  64°F  N/A
Thu 10:00 AM  71.4°F  76°F  5 mph S  2 mph  8 mph  0.00"  87%  67%  67°F  64°F  N/A
Thu 09:00 AM  70.3°F  73°F  1 mph SE  2 mph  6 mph  0.00"  90%  74%  67°F  64°F  N/A
Thu 08:00 AM  69.4°F  70°F  calm  1 mph  4 mph  0.00"  93%  81%  67°F  64°F  N/A
Thu 07:00 AM  68.3°F  68°F  calm  1 mph  3 mph  0.00"  93%  85%  66°F  63°F  N/A
Thu 06:00 AM  68.3°F  67°F  calm  calm  2 mph  0.00"  93%  86%  66°F  63°F  N/A
3Thu 05:40 AM  68.2°F  67°F  calm  calm  2 mph  ----  93%  85%  66°F  63°F  N/A
Thu 05:00 AM  68.5°F  68°F  calm  calm  3 mph  0.00"  93%  85%  66°F  63°F  N/A
Thu 04:00 AM  68.6°F  68°F  calm  1 mph  2 mph  0.00"  92%  85%  66°F  63°F  N/A
Thu 03:00 AM  68.5°F  68°F  calm  1 mph  3 mph  0.00"  91%  85%  66°F  63°F  N/A
Thu 02:00 AM  68.9°F  68°F  calm  calm  none  0.00"  90%  84%  66°F  63°F  N/A
Thu 01:00 AM  69.3°F  68°F  calm  calm  4 mph  0.00"  89%  84%  66°F  63°F  N/A
Thu 12:00 AM  69.8°F  69°F  calm  calm  4 mph  0.00"  88%  83%  66°F  63°F  N/A
Wed 11:00 PM  70.2°F  69°F  calm  1 mph  6 mph  0.00"  87%  81%  66°F  63°F  N/A
Wed 10:00 PM  70.4°F  70°F  2 mph SE  1 mph  6 mph  0.00"  86%  79%  66°F  63°F  N/A
Wed 09:00 PM  71.0°F  70°F  2 mph SE  1 mph  5 mph  0.00"  84%  77%  66°F  63°F  N/A
Wed 08:00 PM  71.9°F  72°F  2 mph S  2 mph  7 mph  0.00"  82%  73%  66°F  62°F  N/A
Wed 07:00 PM  74.2°F  75°F  4 mph S  3 mph  11 mph  0.00"  78%  67%  67°F  62°F  N/A
Wed 06:00 PM  78.3°F  77°F  6 mph S  3 mph  10 mph  0.00"  69%  61%  67°F  62°F  N/A
Wed 05:00 PM  80.5°F  78°F  6 mph S  4 mph  13 mph  0.00"  64%  59%  67°F  62°F  N/A
Wed 04:00 PM  83.5°F  80°F  7 mph S  4 mph  11 mph  0.00"  58%  56%  67°F  62°F  N/A
Wed 03:00 PM  83.8°F  80°F  4 mph S  4 mph  11 mph  0.00"  58%  55%  67°F  62°F  N/A
Wed 02:00 PM  84.2°F  80°F  6 mph SE  4 mph  11 mph  0.00"  58%  56%  67°F  62°F  N/A
Wed 01:00 PM  82.9°F  80°F  6 mph S  4 mph  11 mph  0.00"  61%  57%  68°F  63°F  N/A
Wed 12:00 PM  81.2°F  79°F  4 mph S  4 mph  8 mph  0.00"  65%  59%  68°F  63°F  N/A
Wed 11:00 AM  77.3°F  78°F  4 mph SW  3 mph  8 mph  0.00"  74%  63%  68°F  64°F  N/A
Wed 10:00 AM  74.4°F  76°F  4 mph S  2 mph  7 mph  0.00"  81%  67%  68°F  64°F  N/A
Wed 09:00 AM  71.3°F  73°F  calm  2 mph  5 mph  0.00"  88%  74%  67°F  64°F  N/A
Wed 08:00 AM  70.0°F  70°F  2 mph S  1 mph  6 mph  0.00"  90%  81%  67°F  64°F  N/A
Wed 07:00 AM  69.5°F  68°F  calm  1 mph  5 mph  0.00"  90%  85%  66°F  63°F  N/A
Wed 06:00 AM  68.5°F  67°F  1 mph S  calm  none  0.00"  91%  86%  66°F  63°F  N/A
Wed 05:00 AM  68.2°F  67°F  calm  calm  3 mph  0.00"  90%  86%  65°F  63°F  N/A
Wed 04:00 AM  68.4°F  68°F  2 mph S  1 mph  3 mph  0.00"  90%  85%  65°F  63°F  N/A

  1. Current weather data. No green row appears if the current weather data is also the high or low for the current day.
  2. High temperature for the current day.
  3. Low temperature for the current day.

The San Diego (City Height), California weather pages are a service of WeatherCurrents. City Heights is a San Diego community, located east of Balboa Park, near Interstate 15
Copyright ©Thu Aug 16 06:36:58 PDT 2018  WeatherCurrents. All rights reserved. - Submit questions and comments - Privacy Policy

This page automatically refreshes every 10 minutes.